Time;durP1;ratioP1;P1;durP2;ratioP2;P2;SDS_P1;SDS_P2;PMS_P1;PMS_P2;Temp;Humidity;BMP_temperature;BMP_pressure;BME280_temperature;BME280_humidity;BME280_pressure;Samples;Min_cycle;Max_cycle;Signal;HPM_P1;HPM_P2
2023/01/19 00:00:16;;;;;;;22.03;10.13;;;;;;;0.43;100.00;99978.41;5008411;28;20034;-94
2023/01/19 00:02:47;;;;;;;17.50;8.70;;;;;;;0.45;100.00;99979.91;5013369;28;20289;-94
2023/01/19 00:05:21;;;;;;;18.25;8.77;;;;;;;0.44;100.00;99975.56;5012668;28;20434;-94
2023/01/19 00:07:54;;;;;;;18.60;9.57;;;;;;;0.42;100.00;99982.91;4985318;28;20058;-95
2023/01/19 00:10:22;;;;;;;15.60;9.23;;;;;;;0.46;100.00;99981.59;5005440;28;20041;-94
2023/01/19 00:12:50;;;;;;;17.77;9.83;;;;;;;0.48;100.00;99973.41;4996310;28;20030;-94
2023/01/19 00:15:18;;;;;;;19.02;10.68;;;;;;;0.47;100.00;99966.38;5004287;28;20275;-95
2023/01/19 00:17:49;;;;;;;13.15;6.93;;;;;;;0.52;100.00;99975.56;4998476;28;20064;-94
2023/01/19 00:20:21;;;;;;;16.65;9.35;;;;;;;0.54;100.00;99982.56;4998877;28;20132;-94
2023/01/19 00:22:49;;;;;;;17.83;8.88;;;;;;;0.49;100.00;99977.75;4998201;28;20111;-95
2023/01/19 00:25:18;;;;;;;12.53;7.37;;;;;;;0.62;100.00;99974.50;5015705;28;20038;-94
2023/01/19 00:27:48;;;;;;;19.60;10.10;;;;;;;0.63;100.00;99979.69;4997415;28;20366;-94
2023/01/19 00:30:19;;;;;;;23.27;10.38;;;;;;;0.60;100.00;99987.22;4998500;28;20125;-94
2023/01/19 00:32:47;;;;;;;19.25;9.43;;;;;;;0.68;100.00;100001.38;5015576;28;20359;-95
2023/01/19 00:35:15;;;;;;;19.88;9.43;;;;;;;0.58;100.00;99998.06;5015142;28;20096;-94
2023/01/19 00:37:48;;;;;;;16.17;8.53;;;;;;;0.67;100.00;99996.22;4998216;28;20498;-95
2023/01/19 00:40:17;;;;;;;19.35;10.38;;;;;;;0.69;100.00;99999.53;5014777;28;20294;-94
2023/01/19 00:42:43;;;;;;;18.80;9.23;;;;;;;0.69;100.00;99991.50;4997297;28;20398;-94
2023/01/19 00:45:23;;;;;;;17.23;9.43;;;;;;;0.74;100.00;99981.16;5014783;28;20029;-95
2023/01/19 00:47:57;;;;;;;18.08;7.80;;;;;;;0.71;100.00;99994.88;4996769;28;20081;-95
2023/01/19 00:50:26;;;;;;;19.80;8.90;;;;;;;0.63;100.00;99981.53;4997452;28;20124;-95
2023/01/19 00:53:02;;;;;;;18.75;9.70;;;;;;;0.58;100.00;99970.56;5013883;28;20281;-95
2023/01/19 00:55:35;;;;;;;16.58;7.90;;;;;;;0.64;100.00;99992.03;4997225;28;20030;-96
2023/01/19 00:58:03;;;;;;;14.95;8.48;;;;;;;0.62;100.00;99982.53;4982050;28;20046;-96
2023/01/19 01:00:31;;;;;;;22.15;9.73;;;;;;;0.50;100.00;99977.56;4998022;28;20029;-95
2023/01/19 01:02:59;;;;;;;14.80;8.10;;;;;;;0.45;100.00;99979.09;4998138;28;20088;-95
2023/01/19 01:05:38;;;;;;;17.40;9.85;;;;;;;0.44;100.00;99977.41;4981308;28;20292;-96
2023/01/19 01:08:18;;;;;;;19.00;8.60;;;;;;;0.47;100.00;99983.25;4984074;28;20132;-95
2023/01/19 01:11:00;;;;;;;16.95;8.27;;;;;;;0.54;100.00;99983.38;5015990;28;20560;-96
2023/01/19 01:13:41;;;;;;;18.98;8.70;;;;;;;0.51;100.00;99984.56;5007151;28;20034;-94
2023/01/19 01:16:09;;;;;;;15.43;8.67;;;;;;;0.51;100.00;99995.22;5034113;28;20030;-95
2023/01/19 01:18:39;;;;;;;16.48;8.60;;;;;;;0.55;100.00;99989.56;5009456;28;20285;-96
2023/01/19 01:21:08;;;;;;;17.23;8.40;;;;;;;0.55;100.00;99981.53;4998489;28;20455;-96
2023/01/19 01:23:37;;;;;;;14.63;7.93;;;;;;;0.64;100.00;99991.22;5014641;28;20057;-96
2023/01/19 01:26:02;;;;;;;16.85;8.80;;;;;;;0.64;100.00;99992.03;5014254;28;20025;-95
2023/01/19 01:28:32;;;;;;;17.57;8.63;;;;;;;0.73;100.00;99994.69;4997630;28;20034;-95
2023/01/19 01:31:04;;;;;;;15.38;7.97;;;;;;;0.76;100.00;99994.34;4998106;28;20385;-96
2023/01/19 01:33:40;;;;;;;14.43;7.63;;;;;;;0.79;100.00;99997.50;4998285;28;20026;-96
2023/01/19 01:36:15;;;;;;;21.03;7.50;;;;;;;0.77;100.00;99990.66;5014887;28;20089;-96
2023/01/19 01:38:55;;;;;;;14.65;7.10;;;;;;;0.79;100.00;99994.81;4983156;28;20835;-96
2023/01/19 01:41:26;;;;;;;14.15;7.60;;;;;;;0.85;100.00;100004.81;5017447;28;20021;-96
2023/01/19 01:44:00;;;;;;;16.65;7.57;;;;;;;0.83;100.00;99988.13;5003715;28;20101;-96
2023/01/19 01:46:30;;;;;;;17.08;6.53;;;;;;;0.91;100.00;99999.78;5003342;28;20037;-96
2023/01/19 01:49:14;;;;;;;16.43;7.43;;;;;;;1.00;100.00;100006.75;5002643;28;20120;-96
2023/01/19 02:15:27;;;;;;;19.27;7.47;;;;;;;-0.72;100.00;100020.06;5017963;28;20573;-94
2023/01/19 02:18:02;;;;;;;20.10;8.80;;;;;;;-0.70;100.00;100019.91;5001367;28;20038;-94
2023/01/19 02:20:37;;;;;;;26.27;10.10;;;;;;;-0.71;100.00;100013.75;5002178;28;20281;-95
2023/01/19 02:23:18;;;;;;;23.05;8.90;;;;;;;-0.62;100.00;100041.25;5000298;28;20038;-95
2023/01/19 02:25:49;;;;;;;16.52;7.95;;;;;;;-0.56;100.00;100037.94;5018134;28;20125;-95
2023/01/19 02:28:25;;;;;;;22.85;9.73;;;;;;;-0.51;100.00;100032.09;5000436;28;20576;-95
2023/01/19 02:31:03;;;;;;;25.40;10.77;;;;;;;-0.48;100.00;100025.63;4985330;28;20105;-94
2023/01/19 02:33:36;;;;;;;24.27;10.13;;;;;;;-0.40;100.00;100029.13;4985858;28;20289;-96
2023/01/19 02:36:03;;;;;;;27.75;10.38;;;;;;;-0.33;100.00;100033.81;4987443;28;20117;-92
2023/01/19 02:38:37;;;;;;;20.17;8.27;;;;;;;-0.29;100.00;100040.47;5000871;28;20456;-95
2023/01/19 02:41:06;;;;;;;24.15;10.15;;;;;;;-0.30;100.00;100033.47;4984817;28;20450;-94
2023/01/19 02:43:43;;;;;;;30.87;12.27;;;;;;;-0.23;100.00;100045.97;5016485;28;20037;-95
2023/01/19 02:46:15;;;;;;;22.63;9.02;;;;;;;-0.34;100.00;100030.28;4981324;28;20281;-95
2023/01/19 02:51:57;;;;;;;;;;;;;;;;;;;;;
2023/01/19 02:54:45;;;;;;;24.00;11.20;;;;;;;-0.51;100.00;100068.59;4999329;28;20044;-95
2023/01/19 02:57:42;;;;;;;25.43;10.97;;;;;;;-0.64;100.00;100069.03;4981944;28;20066;-96
2023/01/19 03:00:31;;;;;;;23.20;11.23;;;;;;;-0.79;100.00;100055.50;4981422;28;20356;-95
2023/01/19 03:03:09;;;;;;;14.88;8.07;;;;;;;-0.75;100.00;100068.34;4983038;28;20030;-94
2023/01/19 03:05:37;;;;;;;17.85;8.70;;;;;;;-0.75;100.00;100064.84;4981073;28;20197;-94
2023/01/19 03:08:37;;;;;;;;;;;;;;;;;;;;;
2023/01/19 03:11:24;;;;;;;;;;;;;;;;;;;;;
2023/01/19 03:14:18;;;;;;;29.02;14.02;;;;;;;-0.92;100.00;100071.94;4991271;28;20626;-93
2023/01/19 03:17:07;;;;;;;35.10;15.95;;;;;;;-0.97;100.00;100075.06;4996550;28;20029;-93
2023/01/19 03:19:41;;;;;;;35.72;16.35;;;;;;;-0.97;100.00;100088.38;4979560;28;20034;-93
2023/01/19 03:22:16;;;;;;;31.40;13.82;;;;;;;-1.02;100.00;100074.69;4979482;28;20033;-92
2023/01/19 03:24:52;;;;;;;27.30;12.63;;;;;;;-1.01;100.00;100087.03;4995467;28;20113;-92
2023/01/19 03:27:27;;;;;;;27.95;14.18;;;;;;;-1.03;100.00;100088.16;4979006;28;20296;-92
2023/01/19 03:30:20;;;;;;;30.73;14.48;;;;;;;-1.04;100.00;100086.53;4979024;28;20379;-90
2023/01/19 03:32:53;;;;;;;30.25;15.00;;;;;;;-1.09;100.00;100079.00;4994465;28;20356;-90
2023/01/19 03:35:23;;;;;;;35.42;15.00;;;;;;;-1.16;100.00;100081.47;4995153;28;20045;-89
2023/01/19 03:37:53;;;;;;;44.33;21.43;;;;;;;-1.08;100.00;100093.97;4994511;28;20041;-88
2023/01/19 03:40:20;;;;;;;33.10;16.02;;;;;;;-1.19;100.00;100096.94;4996072;28;20276;-88
2023/01/19 03:43:28;;;;;;;34.55;15.23;;;;;;;-1.10;100.00;100107.44;4962759;28;20038;-88
2023/01/19 03:49:57;;;;;;;30.92;14.82;;;;;;;-1.10;100.00;100112.78;4995990;28;20118;-89
2023/01/19 03:53:04;;;;;;;37.53;16.43;;;;;;;-1.15;100.00;100125.72;4979256;28;20030;-88
2023/01/19 03:55:30;;;;;;;38.22;16.48;;;;;;;-1.17;100.00;100117.06;4995815;28;20254;-88
2023/01/19 03:57:55;;;;;;;44.50;16.60;;;;;;;-1.16;100.00;100139.19;4978964;28;20041;-88
2023/01/19 04:04:01;;;;;;;41.60;16.98;;;;;;;-1.20;100.00;100140.50;4994538;28;20042;-89
2023/01/19 04:10:02;;;;;;;47.20;17.48;;;;;;;-1.21;100.00;100136.16;4976184;28;20340;-88
2023/01/19 04:12:28;;;;;;;46.50;16.80;;;;;;;-1.26;100.00;100132.13;4976214;28;20047;-88
2023/01/19 04:14:53;;;;;;;41.10;15.50;;;;;;;-1.26;100.00;100137.47;4958413;28;20121;-89
2023/01/19 04:17:19;;;;;;;36.77;14.77;;;;;;;-1.24;100.00;100139.97;4958352;28;20117;-89
2023/01/19 04:19:50;;;;;;;29.02;12.68;;;;;;;-1.24;100.00;100151.47;4976187;28;20031;-90
2023/01/19 04:22:15;;;;;;;27.13;12.05;;;;;;;-1.17;100.00;100169.47;4959100;28;20058;-90
2023/01/19 04:24:41;;;;;;;27.80;11.57;;;;;;;-1.23;100.00;100162.94;4976290;28;20032;-91
2023/01/19 04:27:08;;;;;;;28.87;11.40;;;;;;;-1.22;100.00;100161.94;4958471;28;20037;-91
2023/01/19 04:29:37;;;;;;;26.23;10.50;;;;;;;-1.23;100.00;100168.25;4958315;28;20436;-92
2023/01/19 04:32:05;;;;;;;28.02;10.88;;;;;;;-1.19;100.00;100180.28;4976036;28;20026;-91
2023/01/19 04:34:40;;;;;;;26.73;10.40;;;;;;;-1.21;100.00;100178.75;4974836;28;20038;-91
2023/01/19 04:37:09;;;;;;;22.43;9.70;;;;;;;-1.21;100.00;100186.75;4958689;28;20538;-90
2023/01/19 04:39:35;;;;;;;18.20;8.50;;;;;;;-1.19;100.00;100185.59;4958197;28;20037;-90
2023/01/19 04:42:01;;;;;;;13.32;7.40;;;;;;;-1.19;100.00;100184.78;4975329;28;20035;-90
2023/01/19 04:44:29;;;;;;;20.92;8.05;;;;;;;-1.19;100.00;100190.09;4958047;28;20038;-90
2023/01/19 04:46:57;;;;;;;22.95;7.97;;;;;;;-1.17;100.00;100194.25;4958136;28;20037;-89
2023/01/19 04:49:25;;;;;;;17.63;7.22;;;;;;;-1.20;100.00;100183.91;4974038;28;20031;-90
2023/01/19 04:51:56;;;;;;;17.08;7.15;;;;;;;-1.17;100.00;100196.91;4974108;28;20391;-91
2023/01/19 04:54:22;;;;;;;15.57;7.57;;;;;;;-1.21;100.00;100178.75;4975677;28;20039;-91
2023/01/19 04:56:49;;;;;;;24.57;9.43;;;;;;;-1.27;100.00;100166.91;4974872;28;20046;-91
2023/01/19 04:59:19;;;;;;;18.90;8.18;;;;;;;-1.22;100.00;100159.28;4975409;28;20463;-92
2023/01/19 05:01:44;;;;;;;19.75;8.90;;;;;;;-1.26;100.00;100140.13;4958105;28;20395;-91
2023/01/19 05:04:10;;;;;;;20.30;10.13;;;;;;;-1.15;100.00;100146.19;4958713;28;20039;-91
2023/01/19 05:06:36;;;;;;;20.23;9.25;;;;;;;-1.28;100.00;100102.19;4957816;28;20069;-92
2023/01/19 05:09:02;;;;;;;21.17;8.27;;;;;;;-1.22;100.00;100122.03;4969505;28;20078;-92
2023/01/19 05:11:27;;;;;;;18.38;8.13;;;;;;;-1.18;100.00;100130.53;4977287;28;20085;-92
2023/01/19 05:13:53;;;;;;;18.60;8.80;;;;;;;-1.25;100.00;100103.72;4977357;28;20022;-92
2023/01/19 05:16:21;;;;;;;26.80;7.80;;;;;;;-1.26;100.00;100096.69;4976952;28;20402;-92
2023/01/19 05:18:48;;;;;;;18.55;6.68;;;;;;;-1.16;100.00;100118.72;4977271;28;20027;-92
2023/01/19 05:21:14;;;;;;;17.88;6.57;;;;;;;-1.17;100.00;100119.72;4994721;28;20117;-93
2023/01/19 05:23:40;;;;;;;18.33;7.80;;;;;;;-1.25;100.00;100106.38;4977290;28;20113;-92
2023/01/19 05:26:05;;;;;;;24.63;9.43;;;;;;;-1.17;100.00;100130.38;4994279;28;20066;-92
2023/01/19 05:28:34;;;;;;;26.75;10.90;;;;;;;-1.12;100.00;100145.84;4977018;28;20070;-92
2023/01/19 05:31:00;;;;;;;28.20;11.23;;;;;;;-1.14;100.00;100150.53;4976866;28;20041;-92
2023/01/19 05:33:31;;;;;;;33.40;13.10;;;;;;;-1.23;100.00;100141.63;4994721;28;20472;-92
2023/01/19 05:35:56;;;;;;;34.33;13.63;;;;;;;-1.24;100.00;100132.84;4977162;28;20092;-92
2023/01/19 05:38:24;;;;;;;38.60;14.87;;;;;;;-1.23;100.00;100152.28;4994442;28;20121;-91
2023/01/19 05:40:56;;;;;;;40.13;15.38;;;;;;;-1.19;100.00;100158.16;4976918;28;20030;-92
2023/01/19 05:43:24;;;;;;;37.13;13.85;;;;;;;-1.23;100.00;100138.97;4977176;28;20022;-92
2023/01/19 05:45:55;;;;;;;38.17;14.87;;;;;;;-1.18;100.00;100141.16;4976935;28;20030;-91
2023/01/19 05:48:23;;;;;;;42.78;15.75;;;;;;;-1.13;100.00;100155.69;4977461;28;20061;-91
2023/01/19 05:50:55;;;;;;;39.10;14.52;;;;;;;-1.17;100.00;100159.66;4976476;28;20089;-92
2023/01/19 05:53:28;;;;;;;41.20;14.82;;;;;;;-1.11;100.00;100166.19;4976398;28;20368;-91
2023/01/19 05:56:06;;;;;;;41.45;15.70;;;;;;;-1.13;100.00;100160.19;4976378;28;20125;-91
2023/01/19 05:58:40;;;;;;;44.30;16.10;;;;;;;-1.17;100.00;100158.81;4976602;28;20398;-90
2023/01/19 06:01:10;;;;;;;50.85;15.93;;;;;;;-1.12;100.00;100164.50;4993978;28;20058;-91
2023/01/19 06:03:59;;;;;;;48.38;18.05;;;;;;;-1.16;100.00;100158.66;4976148;28;20030;-92
2023/01/19 06:06:45;;;;;;;46.30;17.55;;;;;;;-1.14;100.00;100164.66;4993739;28;20027;-92
2023/01/19 06:09:22;;;;;;;48.67;17.77;;;;;;;-1.15;100.00;100167.47;4992641;28;20061;-91
2023/01/19 06:12:05;;;;;;;56.67;18.17;;;;;;;-1.09;100.00;100175.69;4976439;28;20097;-91
2023/01/19 06:14:43;;;;;;;;;;;;;;;;;;;;;
2023/01/19 06:17:09;;;;;;;59.35;21.50;;;;;;;-1.10;100.00;100179.34;4994197;28;20019;-91
2023/01/19 06:20:02;;;;;;;59.20;18.87;;;;;;;-1.13;100.00;100181.50;4993590;28;20031;-91
2023/01/19 06:22:37;;;;;;;47.63;20.45;;;;;;;-1.09;100.00;100185.50;4975777;28;20487;-91
2023/01/19 06:25:08;;;;;;;57.17;22.45;;;;;;;-1.02;100.00;100199.03;4992675;28;20041;-90
2023/01/19 06:27:35;;;;;;;64.43;25.27;;;;;;;-1.06;100.00;100203.84;4979841;28;20072;-91
2023/01/19 06:30:01;;;;;;;68.50;26.17;;;;;;;-1.07;100.00;100197.66;4979935;28;20386;-91
2023/01/19 06:32:32;;;;;;;69.38;27.13;;;;;;;-1.02;100.00;100199.03;4979684;28;20282;-91
2023/01/19 06:35:15;;;;;;;76.10;27.17;;;;;;;-1.03;100.00;100203.53;4963710;28;20042;-91
2023/01/19 06:37:50;;;;;;;73.43;27.58;;;;;;;-1.08;100.00;100201.34;4980300;28;20022;-92
2023/01/19 06:40:18;;;;;;;82.28;29.63;;;;;;;-1.06;100.00;100212.66;4988525;28;20022;-91
2023/01/19 06:42:46;;;;;;;77.77;29.67;;;;;;;-1.05;100.00;100208.16;4979280;28;20128;-90
2023/01/19 06:45:12;;;;;;;82.53;29.58;;;;;;;-1.07;100.00;100205.66;4979673;28;20277;-91
2023/01/19 06:47:40;;;;;;;102.45;37.13;;;;;;;-1.04;100.00;100209.84;4980613;28;20057;-91
2023/01/19 06:50:13;;;;;;;91.53;35.30;;;;;;;-1.02;100.00;100212.34;5001119;28;20061;-90
2023/01/19 06:52:41;;;;;;;92.50;34.35;;;;;;;-0.97;100.00;100220.72;4981525;28;20292;-92
2023/01/19 06:55:10;;;;;;;87.85;34.35;;;;;;;-1.00;100.00;100221.03;4999757;28;20470;-96
2023/01/19 06:57:37;;;;;;;106.60;37.70;;;;;;;-1.01;100.00;100224.66;4983795;28;20359;-96
2023/01/19 07:00:07;;;;;;;98.55;37.90;;;;;;;-0.99;100.00;100231.53;5017711;28;20116;-96
2023/01/19 07:02:42;;;;;;;112.27;41.47;;;;;;;-1.01;100.00;100222.84;5002300;28;20029;-96
2023/01/19 07:05:09;;;;;;;112.03;38.75;;;;;;;-0.98;100.00;100243.81;5017139;28;20261;-91
2023/01/19 07:07:38;;;;;;;111.57;37.88;;;;;;;-0.97;100.00;100248.16;4998299;28;20037;-90
2023/01/19 07:10:15;;;;;;;104.70;37.72;;;;;;;-1.01;100.00;100246.81;4998637;28;20041;-90
2023/01/19 07:12:41;;;;;;;98.43;34.35;;;;;;;-1.01;100.00;100235.31;4999551;28;20037;-93
2023/01/19 07:15:08;;;;;;;102.20;33.43;;;;;;;-1.01;100.00;100257.44;4998894;28;20064;-93
2023/01/19 07:17:33;;;;;;;108.25;36.13;;;;;;;-0.98;100.00;100246.50;4998421;28;20379;-91
2023/01/19 07:19:59;;;;;;;105.70;34.35;;;;;;;-0.97;100.00;100268.66;5015763;28;20458;-91
2023/01/19 07:22:35;;;;;;;108.30;34.20;;;;;;;-0.92;100.00;100263.69;4982515;28;20036;-93
2023/01/19 07:25:00;;;;;;;121.82;43.17;;;;;;;-0.85;100.00;100263.91;4967182;28;20038;-94
2023/01/19 07:27:26;;;;;;;110.50;38.33;;;;;;;-0.82;100.00;100263.59;4998458;28;20481;-91
2023/01/19 07:29:52;;;;;;;100.88;34.13;;;;;;;-0.89;100.00;100269.56;4981912;28;20189;-90
2023/01/19 07:32:17;;;;;;;121.63;39.67;;;;;;;-0.81;100.00;100274.09;4997646;28;20034;-91
2023/01/19 07:34:43;;;;;;;112.07;35.03;;;;;;;-0.86;100.00;100276.38;5015531;28;20042;-89
2023/01/19 07:37:08;;;;;;;120.27;36.73;;;;;;;-0.81;100.00;100289.22;4981226;28;20390;-89
2023/01/19 07:39:35;;;;;;;110.68;36.38;;;;;;;-0.84;100.00;100295.72;4997120;28;20089;-91
2023/01/19 07:42:00;;;;;;;115.40;36.08;;;;;;;-0.91;100.00;100286.66;5019226;28;20105;-91
2023/01/19 07:44:26;;;;;;;124.10;37.03;;;;;;;-0.97;100.00;100277.47;5015259;28;20105;-90
2023/01/19 07:46:52;;;;;;;117.80;36.37;;;;;;;-0.95;100.00;100288.78;4997483;28;20513;-90
2023/01/19 07:49:17;;;;;;;108.97;33.63;;;;;;;-0.97;100.00;100285.44;5014402;28;20029;-90
2023/01/19 07:51:42;;;;;;;104.23;31.50;;;;;;;-0.97;100.00;100297.94;4981314;28;20077;-90
2023/01/19 07:54:11;;;;;;;137.53;39.90;;;;;;;-0.97;100.00;100296.09;4981027;28;20128;-89
2023/01/19 07:56:39;;;;;;;116.20;33.50;;;;;;;-0.99;100.00;100294.59;5014684;28;20026;-91
2023/01/19 07:59:08;;;;;;;115.32;34.03;;;;;;;-1.00;100.00;100299.06;4997725;28;20065;-92
2023/01/19 08:01:34;;;;;;;121.60;34.95;;;;;;;-0.97;100.00;100305.94;4997209;28;20034;-91
2023/01/19 08:03:59;;;;;;;123.77;33.63;;;;;;;-0.95;100.00;100309.28;4997240;28;20041;-90
2023/01/19 08:06:36;;;;;;;115.68;35.15;;;;;;;-0.95;100.00;100312.75;5014868;28;20096;-90
2023/01/19 08:09:04;;;;;;;112.85;34.05;;;;;;;-0.96;100.00;100308.44;5014657;28;20137;-92
2023/01/19 08:11:30;;;;;;;118.10;32.35;;;;;;;-0.93;100.00;100321.44;4997374;28;20534;-90
2023/01/19 08:13:56;;;;;;;117.30;34.05;;;;;;;-0.98;100.00;100310.41;4997498;28;20038;-91
2023/01/19 08:16:21;;;;;;;115.17;30.70;;;;;;;-0.97;100.00;100317.41;4996750;28;20038;-91
2023/01/19 08:18:47;;;;;;;122.93;34.50;;;;;;;-0.91;100.00;100327.44;5014611;28;20033;-90
2023/01/19 08:21:20;;;;;;;105.37;30.53;;;;;;;-0.88;100.00;100324.47;4981253;28;20092;-89
2023/01/19 08:23:56;;;;;;;129.98;35.85;;;;;;;-0.89;100.00;100338.81;4997009;28;20057;-89
2023/01/19 08:26:28;;;;;;;131.75;32.20;;;;;;;-0.90;100.00;100336.25;4980665;28;20041;-89
2023/01/19 08:28:54;;;;;;;115.23;33.73;;;;;;;-0.89;100.00;100345.94;5014945;28;20029;-89
2023/01/19 08:31:20;;;;;;;98.63;27.77;;;;;;;-0.83;100.00;100357.81;4964552;28;20474;-91
2023/01/19 08:33:45;;;;;;;105.13;29.60;;;;;;;-0.84;100.00;100349.00;4996977;28;20034;-90
2023/01/19 08:36:13;;;;;;;110.03;31.73;;;;;;;-0.83;100.00;100353.31;4996498;28;20041;-90
2023/01/19 08:38:43;;;;;;;133.40;32.88;;;;;;;-0.85;100.00;100349.16;5014179;28;20422;-91
2023/01/19 08:41:09;;;;;;;143.30;35.63;;;;;;;-0.87;100.00;100349.31;4981378;28;20045;-88
2023/01/19 08:43:36;;;;;;;133.30;34.40;;;;;;;-0.89;100.00;100365.44;4996827;28;20288;-88
2023/01/19 08:46:03;;;;;;;133.93;34.92;;;;;;;-0.81;100.00;100374.47;5001748;28;20056;-88
2023/01/19 08:48:31;;;;;;;127.82;33.33;;;;;;;-0.76;100.00;100377.53;5014174;28;20037;-88
2023/01/19 08:50:57;;;;;;;143.07;39.83;;;;;;;-0.73;100.00;100387.88;5015866;28;20048;-90
2023/01/19 08:53:23;;;;;;;153.03;37.13;;;;;;;-0.74;100.00;100373.72;5000550;28;20549;-89
2023/01/19 08:55:53;;;;;;;146.48;34.08;;;;;;;-0.77;100.00;100379.38;5015699;28;20358;-88
2023/01/19 08:58:18;;;;;;;116.13;28.40;;;;;;;-0.68;100.00;100384.75;5013643;28;20048;-88
2023/01/19 09:00:44;;;;;;;134.63;33.10;;;;;;;-0.70;100.00;100382.22;4958037;28;20030;-89
2023/01/19 09:03:11;;;;;;;151.70;34.63;;;;;;;-0.71;100.00;100384.06;4986649;28;20508;-89
2023/01/19 09:05:37;;;;;;;129.27;31.77;;;;;;;-0.65;100.00;100392.44;5001594;28;20097;-90
2023/01/19 09:08:13;;;;;;;118.60;31.27;;;;;;;-0.60;100.00;100398.16;4997058;28;20050;-89
2023/01/19 09:10:46;;;;;;;148.20;38.50;;;;;;;-0.68;100.00;100384.75;4997369;28;20034;-90
2023/01/19 09:13:12;;;;;;;118.65;32.72;;;;;;;-0.64;100.00;100388.78;4995444;28;20125;-89
2023/01/19 09:15:39;;;;;;;141.80;37.57;;;;;;;-0.51;100.00;100399.88;4993611;28;20085;-90
2023/01/19 09:18:09;;;;;;;118.22;32.85;;;;;;;-0.51;100.00;100389.22;5013259;28;20037;-90
2023/01/19 09:20:37;;;;;;;127.93;34.10;;;;;;;-0.45;100.00;100393.94;5014094;28;20056;-90
2023/01/19 09:23:03;;;;;;;148.32;36.80;;;;;;;-0.41;100.00;100399.81;4996419;28;20037;-89
2023/01/19 09:25:29;;;;;;;139.55;37.88;;;;;;;-0.40;100.00;100402.31;4996415;28;20022;-91
2023/01/19 09:27:55;;;;;;;124.77;35.20;;;;;;;-0.39;100.00;100400.47;4994602;28;20402;-89
2023/01/19 09:30:21;;;;;;;116.05;31.77;;;;;;;-0.40;100.00;100404.97;4996652;28;20026;-89
2023/01/19 09:32:46;;;;;;;125.13;33.33;;;;;;;-0.36;100.00;100403.66;5014596;28;20033;-89
2023/01/19 09:35:12;;;;;;;125.70;34.20;;;;;;;-0.29;100.00;100405.72;4980018;28;20038;-89
2023/01/19 09:37:44;;;;;;;121.80;33.17;;;;;;;-0.32;100.00;100400.72;4995501;28;20037;-90
2023/01/19 09:40:14;;;;;;;116.20;33.10;;;;;;;-0.29;100.00;100401.22;5013607;28;20108;-90
2023/01/19 09:43:03;;;;;;;129.53;36.30;;;;;;;-0.28;100.00;100408.22;4996011;28;20030;-90
2023/01/19 09:45:47;;;;;;;111.38;32.00;;;;;;;-0.25;100.00;100418.59;5014049;28;20348;-91
2023/01/19 09:48:33;;;;;;;112.65;33.60;;;;;;;-0.26;100.00;100419.56;5013005;28;20033;-89
2023/01/19 09:51:03;;;;;;;106.20;31.67;;;;;;;-0.22;100.00;100428.13;5012493;28;20088;-90
2023/01/19 09:53:50;;;;;;;109.53;31.08;;;;;;;-0.21;100.00;100427.97;5013942;28;20034;-90
2023/01/19 09:56:18;;;;;;;92.77;28.53;;;;;;;-0.23;100.00;100419.25;4994614;28;20030;-90
2023/01/19 09:58:45;;;;;;;91.40;27.98;;;;;;;-0.16;100.00;100431.97;5014000;28;20312;-89
2023/01/19 10:01:33;;;;;;;95.85;29.10;;;;;;;-0.13;100.00;100434.31;4999227;28;20029;-94
2023/01/19 10:04:13;;;;;;;96.22;29.45;;;;;;;-0.12;100.00;100433.34;4993179;28;20073;-90
2023/01/19 10:06:39;;;;;;;96.88;28.70;;;;;;;-0.04;100.00;100441.41;4997715;28;20038;-90
2023/01/19 10:09:22;;;;;;;84.67;27.93;;;;;;;0.02;100.00;100448.78;4980161;28;20117;-91
2023/01/19 10:11:54;;;;;;;88.25;27.63;;;;;;;0.08;100.00;100447.31;4998871;28;20280;-91
2023/01/19 10:14:52;;;;;;;101.28;29.83;;;;;;;0.17;100.00;100454.38;5016615;28;20466;-90
2023/01/19 10:17:37;;;;;;;98.05;31.75;;;;;;;0.22;100.00;100453.91;4997328;28;20026;-90
2023/01/19 10:20:10;;;;;;;91.82;28.20;;;;;;;0.33;100.00;100453.63;4998664;28;20033;-90
2023/01/19 10:22:35;;;;;;;88.03;30.23;;;;;;;0.31;100.00;100448.47;4998122;28;20096;-90
2023/01/19 10:25:06;;;;;;;94.05;29.45;;;;;;;0.28;100.00;100447.91;4998129;28;20281;-91
2023/01/19 10:27:36;;;;;;;85.13;27.88;;;;;;;0.31;100.00;100451.13;5002203;28;20076;-91
2023/01/19 10:30:09;;;;;;;83.77;26.97;;;;;;;0.28;100.00;100440.78;5000505;28;20458;-90
2023/01/19 10:32:35;;;;;;;96.65;30.92;;;;;;;0.34;100.00;100456.16;5017840;28;20061;-90
2023/01/19 10:35:13;;;;;;;90.60;29.23;;;;;;;0.32;100.00;100447.44;4999510;28;20037;-90
2023/01/19 10:37:43;;;;;;;77.40;27.60;;;;;;;0.33;100.00;100458.97;5005310;28;20025;-91
2023/01/19 10:40:09;;;;;;;87.78;29.35;;;;;;;0.39;100.00;100460.19;5009878;28;20500;-90
2023/01/19 10:42:46;;;;;;;;;;;;;;;;;;;;;
2023/01/19 10:45:16;;;;;;;80.07;27.10;;;;;;;0.45;100.00;100460.38;4998106;28;20027;-90
2023/01/19 10:47:46;;;;;;;86.77;28.33;;;;;;;0.52;100.00;100465.91;5012639;28;20036;-90
2023/01/19 10:50:42;;;;;;;97.70;28.92;;;;;;;0.52;100.00;100464.06;4984469;28;20284;-91
2023/01/19 10:53:19;;;;;;;79.53;30.17;;;;;;;0.52;100.00;100460.56;5001245;28;20118;-91
2023/01/19 10:56:30;;;;;;;87.30;30.73;;;;;;;0.63;100.00;100462.13;4997514;28;20180;-90
2023/01/19 10:58:58;;;;;;;89.05;28.45;;;;;;;0.66;100.00;100457.28;4990058;28;20045;-91
2023/01/19 11:01:29;;;;;;;79.93;28.07;;;;;;;0.73;100.00;100465.50;5015816;28;20385;-91
2023/01/19 11:04:04;;;;;;;81.35;27.95;;;;;;;0.88;100.00;100465.72;5017025;28;20324;-91
2023/01/19 11:06:34;;;;;;;94.75;30.30;;;;;;;1.08;100.00;100457.44;4983055;28;20036;-91
2023/01/19 11:09:16;;;;;;;91.68;30.67;;;;;;;1.22;100.00;100462.97;4998936;28;20109;-94
2023/01/19 11:11:49;;;;;;;93.38;31.35;;;;;;;1.36;100.00;100458.03;4998625;28;20041;-92
2023/01/19 11:14:21;;;;;;;95.20;31.07;;;;;;;1.40;100.00;100460.19;4998908;28;20078;-92
2023/01/19 11:16:51;;;;;;;88.45;28.00;;;;;;;1.40;100.00;100467.34;4999140;28;20368;-91
2023/01/19 11:19:27;;;;;;;81.97;28.48;;;;;;;1.48;100.00;100461.22;5016209;28;20061;-91
2023/01/19 11:22:20;;;;;;;84.60;29.65;;;;;;;1.45;100.00;100454.34;5017209;28;20046;-89
2023/01/19 11:24:56;;;;;;;;;;;;;;;;;;;;;
2023/01/19 11:27:25;;;;;;;82.17;28.30;;;;;;;1.50;100.00;100443.16;5015603;28;20507;-90
2023/01/19 11:30:11;;;;;;;63.17;23.55;;;;;;;1.54;100.00;100449.84;5015737;28;20283;-91
2023/01/19 11:32:46;;;;;;;73.32;27.27;;;;;;;1.64;100.00;100447.00;4996170;28;20076;-90
2023/01/19 11:35:48;;;;;;;59.58;23.60;;;;;;;1.80;100.00;100456.84;4983924;28;20034;-91
2023/01/19 11:38:27;;;;;;;66.57;24.75;;;;;;;1.87;100.00;100449.84;4955551;29;20031;-91
2023/01/19 11:41:03;;;;;;;54.53;24.30;;;;;;;1.92;100.00;100448.34;4992807;28;20093;-91
2023/01/19 11:43:32;;;;;;;62.72;23.88;;;;;;;2.04;100.00;100453.34;5000997;28;20038;-91
2023/01/19 11:46:11;;;;;;;59.42;24.08;;;;;;;2.21;100.00;100441.59;5015875;28;20065;-90
2023/01/19 11:48:56;;;;;;;;;;;;;;;;;;;;;
2023/01/19 11:51:29;;;;;;;47.42;21.38;;;;;;;2.45;100.00;100448.75;5016350;28;20034;-90
2023/01/19 11:54:02;;;;;;;56.37;23.97;;;;;;;2.68;100.00;100447.97;4997801;28;20038;-91
2023/01/19 11:56:31;;;;;;;61.53;25.40;;;;;;;3.40;100.00;100436.19;5000973;28;20280;-93
2023/01/19 11:58:57;;;;;;;60.53;27.25;;;;;;;4.86;100.00;100444.00;4997612;28;20038;-94
2023/01/19 12:01:33;;;;;;;68.20;30.23;;;;;;;6.33;100.00;100429.25;4999450;28;20036;-95
2023/01/19 12:04:29;;;;;;;48.92;23.08;;;;;;;7.33;100.00;100429.66;5000870;28;20037;-96
2023/01/19 12:07:09;;;;;;;34.15;18.05;;;;;;;8.82;100.00;100429.38;5004661;28;20378;-96
2023/01/19 12:10:44;;;;;;;22.88;12.48;;;;;;;9.32;100.00;100436.84;5010774;28;20076;-96
2023/01/19 12:13:29;;;;;;;15.75;8.45;;;;;;;9.71;93.27;100432.19;5030781;28;20049;-96
2023/01/19 12:18:48;;;;;;;15.73;7.63;;;;;;;10.88;82.80;100422.56;5096532;22;20120;-96